createdAt,value
2023-04-29T16:58:35.815Z,5.22
2023-04-29T17:03:57.741Z,5.22
2023-04-29T17:09:19.533Z,5.70
2023-04-29T17:14:41.246Z,4.82
2023-04-29T17:20:03.813Z,5.90
2023-04-29T17:25:25.577Z,5.25
2023-04-29T17:30:47.256Z,5.28
2023-04-29T17:36:08.916Z,4.80
2023-04-29T17:41:30.667Z,4.93
2023-04-29T17:46:52.362Z,5.07
2023-04-29T17:52:15.132Z,5.28
2023-04-29T17:57:38.082Z,5.85
2023-04-29T18:02:59.992Z,5.68
2023-04-29T18:08:21.763Z,5.25
2023-04-29T18:13:43.551Z,5.68
2023-04-29T18:19:05.325Z,5.20
2023-04-29T18:24:29.073Z,5.55
2023-04-29T18:29:51.242Z,5.05
2023-04-29T18:35:13.330Z,4.85
2023-04-29T18:40:46.464Z,4.88
2023-04-29T18:46:08.306Z,5.18
2023-04-29T18:51:31.154Z,6.78
2023-04-29T18:56:52.854Z,6.45
2023-04-29T19:02:14.870Z,4.82
2023-04-29T19:07:36.767Z,4.93
2023-04-29T19:12:58.550Z,4.25
2023-04-29T19:18:22.594Z,4.30
2023-04-29T19:23:44.524Z,4.22
2023-04-29T19:29:07.199Z,5.15
2023-04-29T19:34:29.198Z,5.18
2023-04-29T19:39:51.134Z,4.95
2023-04-29T19:45:13.092Z,5.55
2023-04-29T19:50:34.783Z,6.32
2023-04-29T19:55:56.462Z,5.65
2023-04-29T20:01:18.265Z,5.80
2023-04-29T20:06:40.726Z,5.07
2023-04-29T20:12:03.090Z,5.55
2023-04-29T20:17:25.612Z,5.78
2023-04-29T20:22:48.008Z,6.03
2023-04-29T20:28:09.805Z,6.47
2023-04-29T20:33:31.629Z,6.03
2023-04-29T20:38:53.451Z,5.60
2023-04-29T20:44:15.145Z,6.05
2023-04-29T20:49:37.140Z,5.93
2023-04-29T20:54:59.043Z,7.22
2023-04-29T21:00:20.886Z,6.82
2023-04-29T21:05:42.623Z,6.90
2023-04-29T21:11:07.559Z,7.38
2023-04-29T21:16:29.376Z,7.25
2023-04-29T21:21:51.077Z,6.50
2023-04-29T21:27:12.838Z,7.93
2023-04-29T21:32:35.933Z,6.75
2023-04-29T21:37:57.770Z,7.13
2023-04-29T21:43:19.523Z,6.65
2023-04-29T21:48:41.409Z,6.22
2023-04-29T21:54:08.370Z,6.55
2023-04-29T21:59:34.195Z,6.13
2023-04-29T22:04:55.905Z,6.18
2023-04-29T22:10:17.585Z,6.20
2023-04-29T22:15:39.541Z,6.43
2023-04-29T22:21:01.218Z,6.95
2023-04-29T22:26:25.403Z,6.70
2023-04-29T22:31:47.240Z,6.30
2023-04-29T22:37:08.976Z,5.68
2023-04-29T22:42:30.659Z,5.18
2023-04-29T22:47:52.374Z,5.70
2023-04-29T22:53:14.085Z,5.88
2023-04-29T22:58:35.964Z,5.57
2023-04-29T23:03:57.816Z,5.95
2023-04-29T23:09:19.582Z,5.78
2023-04-29T23:14:41.270Z,4.88
2023-04-29T23:20:03.039Z,5.22
2023-04-29T23:25:24.718Z,5.00
2023-04-29T23:30:47.825Z,5.20
2023-04-29T23:36:09.499Z,5.40
2023-04-29T23:41:31.793Z,5.00
2023-04-29T23:46:53.598Z,5.28
2023-04-29T23:52:15.301Z,5.50
2023-04-29T23:57:37.003Z,5.38
